Time;durP1;ratioP1;P1;durP2;ratioP2;P2;SDS_P1;SDS_P2;PMS_P1;PMS_P2;Temp;Humidity;BMP_temperature;BMP_pressure;BME280_temperature;BME280_humidity;BME280_pressure;Samples;Min_cycle;Max_cycle;Signal;HPM_P1;HPM_P2
2022/01/13 00:01:51;;;;;;;1999.90;999.90;;;5.60;99.90;;;;;;5092454;28;20032;-64
2022/01/13 00:04:18;;;;;;;1999.90;999.90;;;5.70;99.90;;;;;;5092862;28;20044;-63
2022/01/13 00:06:44;;;;;;;1999.90;999.90;;;5.70;99.90;;;;;;5092426;28;20405;-63
2022/01/13 00:09:10;;;;;;;1999.90;999.90;;;5.70;99.90;;;;;;5092200;28;20040;-63
2022/01/13 00:11:36;;;;;;;1999.90;999.90;;;5.70;99.90;;;;;;5092382;28;20558;-63
2022/01/13 00:21:47;;;;;;;1999.90;999.90;;;5.70;99.90;;;;;;5092763;28;20044;-63
2022/01/13 00:24:14;;;;;;;1999.90;999.90;;;5.70;99.90;;;;;;5091465;28;20132;-64
2022/01/13 00:26:41;;;;;;;1999.90;999.90;;;5.70;99.90;;;;;;5095572;28;20044;-63
2022/01/13 00:29:08;;;;;;;1999.90;999.90;;;5.70;99.90;;;;;;5078778;28;20043;-63
2022/01/13 00:31:37;;;;;;;1999.90;999.90;;;5.70;99.90;;;;;;5096449;28;20056;-63
2022/01/13 00:34:05;;;;;;;1999.90;999.90;;;5.80;99.90;;;;;;5078391;28;20040;-63
2022/01/13 00:36:34;;;;;;;1999.90;999.90;;;5.80;99.90;;;;;;5096260;28;20086;-64
2022/01/13 00:39:00;;;;;;;1999.90;999.90;;;5.80;99.90;;;;;;5096843;28;20079;-63
2022/01/13 00:41:29;;;;;;;1999.90;999.90;;;5.80;99.90;;;;;;5096885;28;20140;-63
2022/01/13 00:43:57;;;;;;;1999.90;999.90;;;5.80;99.90;;;;;;5095869;28;20054;-64
2022/01/13 00:46:26;;;;;;;1999.90;999.90;;;5.80;99.90;;;;;;5078321;28;20047;-63
2022/01/13 00:48:53;;;;;;;1999.90;999.90;;;5.80;99.90;;;;;;5096350;28;20123;-64
2022/01/13 00:51:22;;;;;;;1999.90;999.90;;;5.80;99.90;;;;;;5095598;28;20040;-63
2022/01/13 00:53:49;;;;;;;1999.90;999.90;;;5.70;99.90;;;;;;5096500;28;20048;-63
2022/01/13 00:56:15;;;;;;;1999.90;999.90;;;5.80;99.90;;;;;;5096637;28;20047;-63
2022/01/13 00:58:41;;;;;;;1999.90;999.90;;;5.70;99.90;;;;;;5095752;28;20040;-63
2022/01/13 01:01:08;;;;;;;1999.90;999.90;;;5.70;99.90;;;;;;5095905;28;20090;-63
2022/01/13 01:03:36;;;;;;;1999.90;999.90;;;5.70;99.90;;;;;;5096103;28;20047;-63
2022/01/13 01:06:03;;;;;;;1999.90;999.90;;;5.60;99.90;;;;;;5095524;28;20051;-64
2022/01/13 01:08:31;;;;;;;1999.90;999.90;;;5.60;99.90;;;;;;5095998;28;20102;-63
2022/01/13 01:11:00;;;;;;;1999.90;999.90;;;5.60;99.90;;;;;;5095885;28;20051;-63
2022/01/13 01:13:29;;;;;;;1999.90;999.90;;;5.60;99.90;;;;;;5095649;28;20479;-64
2022/01/13 01:15:58;;;;;;;1999.90;999.90;;;5.60;99.90;;;;;;5096251;28;20071;-63
2022/01/13 01:23:59;;;;;;;1999.90;999.90;;;5.50;99.90;;;;;;5095995;28;20048;-63
2022/01/13 01:31:28;;;;;;;1999.90;999.90;;;5.50;99.90;;;;;;5095653;28;20044;-64
2022/01/13 01:34:18;;;;;;;1999.90;999.90;;;5.50;99.90;;;;;;5095230;28;20097;-63
2022/01/13 01:36:45;;;;;;;1999.90;999.90;;;5.40;99.90;;;;;;5095198;28;20044;-64
2022/01/13 01:39:11;;;;;;;1999.90;999.90;;;5.40;99.90;;;;;;5094892;28;20055;-63
2022/01/13 01:41:42;;;;;;;1999.90;999.90;;;5.40;99.90;;;;;;5095572;28;20405;-63
2022/01/13 01:44:10;;;;;;;1999.90;999.90;;;5.40;99.90;;;;;;5095693;28;20052;-63
2022/01/13 01:46:38;;;;;;;1999.90;999.90;;;5.40;99.90;;;;;;5095067;28;20047;-63
2022/01/13 01:49:14;;;;;;;1999.90;999.90;;;5.30;99.90;;;;;;5095302;28;20052;-63
2022/01/13 01:51:42;;;;;;;1999.90;999.90;;;5.40;99.90;;;;;;5077699;28;20054;-64
2022/01/13 01:54:08;;;;;;;1999.90;999.90;;;5.40;99.90;;;;;;5094298;28;20105;-64
2022/01/13 01:56:35;;;;;;;1999.90;999.90;;;5.30;99.90;;;;;;5095466;28;20044;-64
2022/01/13 01:59:03;;;;;;;1999.90;999.90;;;5.30;99.90;;;;;;5095567;28;20040;-63
2022/01/13 02:01:29;;;;;;;1999.90;999.90;;;5.30;99.90;;;;;;5093936;28;20048;-63
2022/01/13 02:03:55;;;;;;;1999.90;999.90;;;5.30;99.90;;;;;;5095282;28;20044;-63
2022/01/13 02:06:22;;;;;;;1999.90;999.90;;;5.30;99.90;;;;;;5095395;28;20098;-63
2022/01/13 02:08:47;;;;;;;1999.90;999.90;;;5.30;99.90;;;;;;5094280;28;20055;-63
2022/01/13 02:11:14;;;;;;;1999.90;999.90;;;5.30;99.90;;;;;;5094892;28;20044;-63
2022/01/13 02:13:47;;;;;;;1999.90;999.90;;;5.30;99.90;;;;;;5095034;28;20050;-63
2022/01/13 02:16:43;;;;;;;1999.90;999.90;;;5.20;99.90;;;;;;5094039;28;20044;-64
2022/01/13 02:19:10;;;;;;;1999.90;999.90;;;5.30;99.90;;;;;;5094867;28;20477;-63
2022/01/13 02:21:36;;;;;;;1999.90;999.90;;;5.20;99.90;;;;;;5094921;28;20118;-63
2022/01/13 02:24:02;;;;;;;1999.90;999.90;;;5.20;99.90;;;;;;5094053;28;20036;-64
2022/01/13 02:26:28;;;;;;;1999.90;999.90;;;5.20;99.90;;;;;;5095000;28;20117;-64
2022/01/13 02:28:54;;;;;;;1999.90;999.90;;;5.10;99.90;;;;;;5093627;28;20039;-63
2022/01/13 02:31:21;;;;;;;1999.90;999.90;;;5.20;99.90;;;;;;5094457;28;20052;-63
2022/01/13 02:33:47;;;;;;;1999.90;999.90;;;5.10;99.90;;;;;;5094852;28;20047;-64
2022/01/13 02:36:16;;;;;;;1999.90;999.90;;;5.10;99.90;;;;;;5094082;28;20051;-63
2022/01/13 02:38:47;;;;;;;1999.90;999.90;;;5.20;99.90;;;;;;5093905;28;20040;-64
2022/01/13 02:41:13;;;;;;;1999.90;999.90;;;5.10;99.90;;;;;;5094498;28;20048;-64
2022/01/13 02:43:39;;;;;;;1999.90;999.90;;;5.10;99.90;;;;;;5093799;28;20440;-63
2022/01/13 02:46:30;;;;;;;1999.90;999.90;;;5.10;99.90;;;;;;5094106;28;20044;-64
2022/01/13 02:48:56;;;;;;;1999.90;999.90;;;5.10;99.90;;;;;;5076239;28;20108;-63
2022/01/13 02:51:21;;;;;;;1999.90;999.90;;;5.10;99.90;;;;;;5093505;28;20047;-64
2022/01/13 02:53:47;;;;;;;1999.90;999.90;;;5.10;99.90;;;;;;5094117;28;20054;-63
2022/01/13 02:56:13;;;;;;;1999.90;999.90;;;5.10;99.90;;;;;;5094163;28;20390;-64
2022/01/13 02:58:39;;;;;;;1999.90;999.90;;;5.10;99.90;;;;;;5093587;28;20127;-64
2022/01/13 03:01:05;;;;;;;1999.90;999.90;;;5.10;99.90;;;;;;5093911;28;20044;-64
2022/01/13 03:03:34;;;;;;;1999.90;999.90;;;5.10;99.90;;;;;;5093654;28;20100;-64
2022/01/13 03:06:08;;;;;;;1999.90;999.90;;;5.10;99.90;;;;;;5093315;28;20040;-64
2022/01/13 03:08:36;;;;;;;1999.90;999.90;;;5.10;99.90;;;;;;5093358;28;20494;-63
2022/01/13 03:11:02;;;;;;;1999.90;999.90;;;5.10;99.90;;;;;;5093556;28;20512;-63
2022/01/13 03:13:29;;;;;;;1999.90;999.90;;;5.10;99.90;;;;;;5093134;28;20513;-64
2022/01/13 03:15:55;;;;;;;1999.90;999.90;;;5.10;99.90;;;;;;5075455;28;20059;-63
2022/01/13 03:18:21;;;;;;;1999.90;999.90;;;5.10;99.90;;;;;;5093223;28;20032;-63
2022/01/13 03:20:47;;;;;;;1999.90;999.90;;;5.10;99.90;;;;;;5094007;28;20571;-63
2022/01/13 03:23:17;;;;;;;1999.90;999.90;;;5.10;99.90;;;;;;5092973;28;20059;-64
2022/01/13 03:25:45;;;;;;;1999.90;999.90;;;5.20;99.90;;;;;;5093100;28;20054;-63
2022/01/13 03:28:17;;;;;;;1999.90;999.90;;;5.20;99.90;;;;;;5093801;28;20040;-64
2022/01/13 03:30:44;;;;;;;1999.90;999.90;;;5.10;99.90;;;;;;5092971;28;20054;-63
2022/01/13 03:33:12;;;;;;;1999.90;999.90;;;5.20;99.90;;;;;;5092858;28;20363;-64
2022/01/13 03:35:39;;;;;;;1999.90;999.90;;;5.20;99.90;;;;;;5093523;28;20559;-63
2022/01/13 03:38:06;;;;;;;1999.90;999.90;;;5.20;99.90;;;;;;5093234;28;20443;-64
2022/01/13 03:40:33;;;;;;;1999.90;999.90;;;5.10;99.90;;;;;;5092346;28;20464;-64
2022/01/13 03:43:01;;;;;;;1999.90;999.90;;;5.20;99.90;;;;;;5093638;28;20448;-64
2022/01/13 03:45:27;;;;;;;1999.90;999.90;;;5.20;99.90;;;;;;5093053;28;20087;-64
2022/01/13 03:47:54;;;;;;;1999.90;999.90;;;5.20;99.90;;;;;;5092464;28;20039;-63
2022/01/13 03:50:20;;;;;;;1999.90;999.90;;;5.20;99.90;;;;;;5093158;28;20120;-64
2022/01/13 03:53:04;;;;;;;1999.90;999.90;;;5.20;99.90;;;;;;5092834;28;20044;-63
2022/01/13 03:55:36;;;;;;;1999.90;999.90;;;5.20;99.90;;;;;;5092914;28;20047;-64
2022/01/13 03:59:02;;;;;;;1999.90;999.90;;;5.20;99.90;;;;;;5092785;28;20048;-64
2022/01/13 04:01:40;;;;;;;1999.90;999.90;;;5.30;99.90;;;;;;5073556;28;20048;-64
2022/01/13 04:04:06;;;;;;;1999.90;999.90;;;5.20;99.90;;;;;;5093294;28;20089;-64
2022/01/13 04:06:40;;;;;;;1999.90;999.90;;;5.20;99.90;;;;;;5092269;28;20044;-64
2022/01/13 04:09:25;;;;;;;1999.90;999.90;;;5.20;99.90;;;;;;5092519;28;20052;-64
2022/01/13 04:11:51;;;;;;;1999.90;999.90;;;5.20;99.90;;;;;;5092974;28;20089;-63
2022/01/13 04:14:26;;;;;;;1999.90;999.90;;;5.20;99.90;;;;;;5077555;28;20044;-64
2022/01/13 04:16:52;;;;;;;1999.90;999.90;;;5.10;99.90;;;;;;5073001;28;20060;-64
2022/01/13 04:19:18;;;;;;;1999.90;999.90;;;5.10;99.90;;;;;;5072724;28;20131;-64
2022/01/13 04:21:43;;;;;;;1999.90;999.90;;;5.10;99.90;;;;;;5071823;28;20520;-65
2022/01/13 04:24:11;;;;;;;1999.90;999.90;;;5.10;99.90;;;;;;5072484;28;20094;-64
2022/01/13 04:26:39;;;;;;;1999.90;999.90;;;5.10;99.90;;;;;;5072859;28;20475;-64
2022/01/13 04:29:20;;;;;;;1999.90;999.90;;;5.10;99.90;;;;;;5071382;28;20093;-64
2022/01/13 04:31:48;;;;;;;1999.90;999.90;;;5.10;99.90;;;;;;5072090;28;20051;-64
2022/01/13 04:34:14;;;;;;;1999.90;999.90;;;5.10;99.90;;;;;;5072742;28;20052;-64
2022/01/13 04:36:40;;;;;;;1999.90;999.90;;;5.10;99.90;;;;;;5071431;28;20505;-64
2022/01/13 04:39:08;;;;;;;1999.90;999.90;;;5.10;99.90;;;;;;5072590;28;20048;-65
2022/01/13 04:41:36;;;;;;;1999.90;999.90;;;5.10;99.90;;;;;;5072223;28;20045;-64
2022/01/13 04:44:06;;;;;;;1999.90;999.90;;;5.10;99.90;;;;;;5071651;28;20059;-64
2022/01/13 04:46:32;;;;;;;1999.90;999.90;;;5.10;99.90;;;;;;5072444;28;20387;-64
2022/01/13 04:48:59;;;;;;;1999.90;999.90;;;5.10;99.90;;;;;;5072326;28;20052;-64
2022/01/13 04:51:26;;;;;;;1999.90;999.90;;;5.10;99.90;;;;;;5070975;28;20514;-64
2022/01/13 04:53:52;;;;;;;1999.90;999.90;;;5.10;99.90;;;;;;5072459;28;20045;-64
2022/01/13 04:56:28;;;;;;;1999.90;999.90;;;5.10;99.90;;;;;;5072366;28;20448;-63
2022/01/13 04:58:55;;;;;;;1999.90;999.90;;;5.10;99.90;;;;;;5069734;28;20041;-64
2022/01/13 05:01:22;;;;;;;1999.90;999.90;;;5.10;99.90;;;;;;5072640;28;20060;-64
2022/01/13 05:03:47;;;;;;;1999.90;999.90;;;5.10;99.90;;;;;;5070371;28;20052;-64
2022/01/13 05:06:17;;;;;;;1999.90;999.90;;;5.10;99.90;;;;;;5071953;28;20368;-64
2022/01/13 05:08:43;;;;;;;1999.90;999.90;;;5.10;99.90;;;;;;5070948;28;20131;-64
2022/01/13 05:11:09;;;;;;;1999.90;999.90;;;5.10;99.90;;;;;;5071511;28;20048;-64
2022/01/13 05:13:35;;;;;;;1999.90;999.90;;;5.10;99.90;;;;;;5083837;28;20563;-64
2022/01/13 05:16:01;;;;;;;1999.90;999.90;;;5.10;99.90;;;;;;5095878;28;20051;-64
2022/01/13 05:21:05;;;;;;;1999.90;999.90;;;5.10;99.90;;;;;;5095807;28;20044;-64
2022/01/13 05:23:31;;;;;;;1999.90;999.90;;;5.20;99.90;;;;;;5095994;28;20413;-64
2022/01/13 05:25:57;;;;;;;1999.90;999.90;;;5.10;99.90;;;;;;5094759;28;20056;-64
2022/01/13 05:28:24;;;;;;;1999.90;999.90;;;5.10;99.90;;;;;;5095726;28;20047;-64
2022/01/13 05:30:49;;;;;;;1999.90;999.90;;;5.10;99.90;;;;;;5095465;28;20490;-64
2022/01/13 05:33:15;;;;;;;1999.90;999.90;;;5.10;99.90;;;;;;5095313;28;20067;-64
2022/01/13 05:35:42;;;;;;;1999.90;999.90;;;5.10;99.90;;;;;;5095402;28;20040;-64
2022/01/13 05:38:09;;;;;;;1999.90;999.90;;;5.10;99.90;;;;;;5095945;28;20051;-64
2022/01/13 05:40:36;;;;;;;1999.90;999.90;;;5.10;99.90;;;;;;5095283;28;20104;-64
2022/01/13 05:43:03;;;;;;;1999.90;999.90;;;5.10;99.90;;;;;;5095137;28;20063;-64
2022/01/13 05:45:30;;;;;;;1999.90;999.90;;;5.10;99.90;;;;;;5095486;28;20074;-65
2022/01/13 05:47:58;;;;;;;1999.90;999.90;;;5.00;99.90;;;;;;5095129;28;20048;-65
2022/01/13 05:50:24;;;;;;;1999.90;999.90;;;5.10;99.90;;;;;;5094990;28;20083;-64
2022/01/13 05:52:50;;;;;;;1999.90;999.90;;;5.00;99.90;;;;;;5094327;28;20127;-64
2022/01/13 05:55:17;;;;;;;1999.90;999.90;;;5.10;99.90;;;;;;5095499;28;20086;-64
2022/01/13 05:57:44;;;;;;;1999.90;999.90;;;5.00;99.90;;;;;;5095236;28;20478;-65
2022/01/13 06:00:12;;;;;;;1999.90;999.90;;;5.00;99.90;;;;;;5094714;28;20059;-65
2022/01/13 06:02:38;;;;;;;1999.90;999.90;;;5.00;99.90;;;;;;5095261;28;20509;-65
2022/01/13 06:05:05;;;;;;;1999.90;999.90;;;5.00;99.90;;;;;;5094730;28;20048;-64
2022/01/13 06:07:31;;;;;;;1999.90;999.90;;;5.00;99.90;;;;;;5094347;28;20478;-65
2022/01/13 06:09:57;;;;;;;1999.90;999.90;;;5.00;99.90;;;;;;5094585;28;20139;-65
2022/01/13 06:12:32;;;;;;;1999.90;999.90;;;5.00;99.90;;;;;;5094994;28;20088;-65
2022/01/13 06:15:01;;;;;;;1999.90;999.90;;;5.00;99.90;;;;;;5094229;28;20056;-65
2022/01/13 06:17:27;;;;;;;1999.90;999.90;;;5.00;99.90;;;;;;5095264;28;20060;-65
2022/01/13 06:19:55;;;;;;;1999.90;999.90;;;5.00;99.90;;;;;;5094502;28;20092;-65
2022/01/13 06:22:22;;;;;;;1999.90;999.90;;;5.00;99.90;;;;;;5094297;28;20482;-65
2022/01/13 06:24:49;;;;;;;1999.90;999.90;;;5.00;99.90;;;;;;5094583;28;20095;-65
2022/01/13 06:27:15;;;;;;;1999.90;999.90;;;5.10;99.90;;;;;;5094020;28;20035;-64
2022/01/13 06:29:41;;;;;;;1999.90;999.90;;;5.10;99.90;;;;;;5075905;28;20048;-65
2022/01/13 06:32:07;;;;;;;1999.90;999.90;;;5.10;99.90;;;;;;5094905;28;20084;-64
2022/01/13 06:34:33;;;;;;;1999.90;999.90;;;5.10;99.90;;;;;;5094341;28;20116;-64
2022/01/13 06:36:58;;;;;;;1999.90;999.90;;;5.10;99.90;;;;;;5093514;28;20048;-64
2022/01/13 06:39:24;;;;;;;1999.90;999.90;;;5.20;99.90;;;;;;5094746;28;20054;-65
2022/01/13 06:41:50;;;;;;;1999.90;999.90;;;5.20;99.90;;;;;;5094181;28;20224;-65
2022/01/13 06:44:16;;;;;;;1999.90;999.90;;;5.20;99.90;;;;;;5094067;28;20047;-65
2022/01/13 06:46:42;;;;;;;1999.90;999.90;;;5.20;99.90;;;;;;5093893;28;20075;-64
2022/01/13 06:49:08;;;;;;;1999.90;999.90;;;5.30;99.90;;;;;;5093357;28;20051;-64
2022/01/13 06:51:34;;;;;;;1999.90;999.90;;;5.30;99.90;;;;;;5094385;28;20138;-64
2022/01/13 06:53:59;;;;;;;1999.90;999.90;;;5.30;99.90;;;;;;5094154;28;20044;-63
2022/01/13 06:56:26;;;;;;;1999.90;999.90;;;5.30;99.90;;;;;;5093267;28;20048;-64
2022/01/13 06:58:54;;;;;;;1999.90;999.90;;;5.40;99.90;;;;;;5094265;28;20066;-64
2022/01/13 07:01:21;;;;;;;1999.90;999.90;;;5.40;99.90;;;;;;5094306;28;20059;-65
2022/01/13 07:03:47;;;;;;;1999.90;999.90;;;5.40;99.90;;;;;;5092707;28;20047;-65
2022/01/13 07:06:13;;;;;;;1999.90;999.90;;;5.50;99.90;;;;;;5075837;28;20055;-65
2022/01/13 07:08:39;;;;;;;1999.90;999.90;;;5.50;99.90;;;;;;5094007;28;20469;-64
2022/01/13 07:11:05;;;;;;;1999.90;999.90;;;5.50;99.90;;;;;;5092765;28;20513;-64
2022/01/13 07:13:31;;;;;;;1999.90;999.90;;;5.50;99.90;;;;;;5096074;28;20119;-64
2022/01/13 07:15:59;;;;;;;1999.90;999.90;;;5.50;99.90;;;;;;5104161;28;20470;-64
2022/01/13 07:18:25;;;;;;;1999.90;999.90;;;5.50;99.90;;;;;;5102130;28;20482;-65
2022/01/13 07:20:51;;;;;;;1999.90;999.90;;;5.60;99.90;;;;;;5104898;28;20058;-65
2022/01/13 07:23:17;;;;;;;1999.90;999.90;;;5.60;99.90;;;;;;5093769;28;20047;-64
2022/01/13 07:25:42;;;;;;;1999.90;999.90;;;5.60;99.90;;;;;;5093376;28;20048;-64
2022/01/13 07:28:09;;;;;;;1999.90;999.90;;;5.60;99.90;;;;;;5093489;28;20422;-64
2022/01/13 07:30:35;;;;;;;1999.90;999.90;;;5.70;99.90;;;;;;5092871;28;20044;-64
2022/01/13 07:33:01;;;;;;;1999.90;999.90;;;5.70;99.90;;;;;;5093166;28;20055;-64
2022/01/13 07:35:27;;;;;;;1999.90;999.90;;;5.70;99.90;;;;;;5092654;28;20084;-64
2022/01/13 07:37:53;;;;;;;1999.90;999.90;;;5.70;99.90;;;;;;5093174;28;20089;-64
2022/01/13 07:40:18;;;;;;;1999.90;999.90;;;5.70;99.90;;;;;;5092881;28;20048;-64
2022/01/13 07:42:46;;;;;;;1999.90;999.90;;;5.70;99.90;;;;;;5102457;28;20046;-64
2022/01/13 07:45:13;;;;;;;1999.90;999.90;;;5.70;99.90;;;;;;5102576;28;20039;-64
2022/01/13 07:47:40;;;;;;;1999.90;999.90;;;5.80;99.90;;;;;;5101589;28;20044;-64
2022/01/13 07:50:08;;;;;;;1999.90;999.90;;;5.80;99.90;;;;;;5092951;28;20087;-64
2022/01/13 07:52:34;;;;;;;1999.90;999.90;;;5.80;99.90;;;;;;5074381;28;20083;-64
2022/01/13 07:55:00;;;;;;;1999.90;999.90;;;5.80;99.90;;;;;;5093516;28;20082;-63
2022/01/13 07:57:25;;;;;;;1999.90;999.90;;;5.90;99.90;;;;;;5092462;28;20076;-64
2022/01/13 07:59:53;;;;;;;1999.90;999.90;;;5.90;99.90;;;;;;5094319;28;20062;-64
2022/01/13 08:02:19;;;;;;;1999.90;999.90;;;5.90;99.90;;;;;;5072338;28;20075;-63
2022/01/13 08:04:45;;;;;;;1999.90;999.90;;;6.00;99.90;;;;;;5080423;28;20048;-64
2022/01/13 08:07:11;;;;;;;1999.90;999.90;;;6.00;99.90;;;;;;5095905;28;20466;-64
2022/01/13 08:09:37;;;;;;;1999.90;999.90;;;6.00;99.90;;;;;;5078355;28;20048;-64
2022/01/13 08:12:03;;;;;;;1999.90;999.90;;;6.00;99.90;;;;;;5092537;28;20079;-64
2022/01/13 08:14:29;;;;;;;1999.90;999.90;;;6.00;99.90;;;;;;5086736;28;20109;-64
2022/01/13 08:16:59;;;;;;;1999.90;999.90;;;6.00;99.90;;;;;;5074625;28;20032;-64
2022/01/13 08:22:09;;;;;;;1999.90;999.90;;;6.00;99.90;;;;;;5091896;28;20144;-64
2022/01/13 08:24:36;;;;;;;1999.90;999.90;;;6.00;99.90;;;;;;5092472;28;20494;-64
2022/01/13 08:27:02;;;;;;;1999.90;999.90;;;6.00;99.90;;;;;;5091496;28;20051;-64
2022/01/13 08:29:27;;;;;;;1999.90;999.90;;;6.00;99.90;;;;;;5091949;28;20052;-63
2022/01/13 08:31:53;;;;;;;1999.90;999.90;;;6.00;99.90;;;;;;5092209;28;20040;-64
2022/01/13 08:34:19;;;;;;;1999.90;999.90;;;6.00;99.90;;;;;;5091928;28;20063;-65
2022/01/13 08:36:45;;;;;;;1999.90;999.90;;;6.00;99.90;;;;;;5092204;28;20474;-65
2022/01/13 08:39:12;;;;;;;1999.90;999.90;;;6.00;99.90;;;;;;5089209;28;20057;-64
2022/01/13 08:41:38;;;;;;;1999.90;999.90;;;6.00;99.90;;;;;;5097624;28;20101;-64
2022/01/13 08:44:04;;;;;;;1999.90;999.90;;;6.00;99.90;;;;;;5098944;28;20390;-64
2022/01/13 08:46:30;;;;;;;1999.90;999.90;;;6.10;99.90;;;;;;5101975;28;20044;-64
2022/01/13 08:48:56;;;;;;;1999.90;999.90;;;6.10;99.90;;;;;;5085570;28;20047;-64
2022/01/13 08:51:22;;;;;;;1999.90;999.90;;;6.10;99.90;;;;;;5106822;28;20044;-64
2022/01/13 08:53:48;;;;;;;1999.90;999.90;;;6.10;99.90;;;;;;5107056;28;20050;-64
2022/01/13 08:56:15;;;;;;;1999.90;999.90;;;6.10;99.90;;;;;;5104500;28;20055;-64
2022/01/13 08:58:43;;;;;;;1999.90;999.90;;;6.10;99.90;;;;;;5104013;28;20063;-65
2022/01/13 09:01:09;;;;;;;1999.90;999.90;;;6.10;99.90;;;;;;5102012;28;20047;-64
2022/01/13 09:03:35;;;;;;;1999.90;999.90;;;6.00;99.90;;;;;;5115767;28;20127;-64
2022/01/13 09:06:02;;;;;;;1999.90;999.90;;;6.10;99.90;;;;;;5078933;28;20401;-64
2022/01/13 09:08:28;;;;;;;1999.90;999.90;;;6.10;99.90;;;;;;5096056;28;20094;-64
2022/01/13 09:10:54;;;;;;;1999.90;999.90;;;6.10;99.90;;;;;;5095089;28;20044;-64
2022/01/13 09:13:21;;;;;;;1999.90;999.90;;;6.10;99.90;;;;;;5096351;28;20113;-64
2022/01/13 09:15:57;;;;;;;1999.90;999.90;;;6.10;99.90;;;;;;5096209;28;20125;-65
2022/01/13 09:21:08;;;;;;;1999.90;999.90;;;6.10;99.90;;;;;;5102578;28;20040;-64
2022/01/13 09:23:36;;;;;;;1999.90;999.90;;;6.10;99.90;;;;;;5110076;28;20104;-66
2022/01/13 09:26:03;;;;;;;1999.90;999.90;;;6.10;99.90;;;;;;5095576;28;20459;-64
2022/01/13 09:28:29;;;;;;;1999.90;999.90;;;6.00;99.90;;;;;;5095970;28;20118;-64
2022/01/13 09:30:55;;;;;;;1999.90;999.90;;;6.00;99.90;;;;;;5095150;28;20562;-64
2022/01/13 09:33:21;;;;;;;1999.90;999.90;;;6.10;99.90;;;;;;5095478;28;20044;-64
2022/01/13 09:35:48;;;;;;;1999.90;999.90;;;6.10;99.90;;;;;;5095918;28;20052;-64
2022/01/13 09:38:14;;;;;;;1999.90;999.90;;;6.10;99.90;;;;;;5101482;28;20105;-65
2022/01/13 09:40:43;;;;;;;1999.90;999.90;;;6.00;99.90;;;;;;5103289;28;20043;-64
2022/01/13 09:43:09;;;;;;;1999.90;999.90;;;6.10;99.90;;;;;;5103116;28;20039;-65
2022/01/13 09:45:36;;;;;;;1999.90;999.90;;;6.10;99.90;;;;;;5105079;28;20047;-64
2022/01/13 09:48:01;;;;;;;1999.90;999.90;;;6.10;99.90;;;;;;5116000;28;20056;-65
2022/01/13 09:50:27;;;;;;;1999.90;999.90;;;6.10;99.90;;;;;;5113228;28;20511;-65
2022/01/13 09:52:53;;;;;;;1999.90;999.90;;;6.00;99.90;;;;;;5095189;28;20501;-65
2022/01/13 09:55:20;;;;;;;1999.90;999.90;;;6.00;99.90;;;;;;5098067;28;20104;-64
2022/01/13 09:57:48;;;;;;;1999.90;999.90;;;6.10;99.90;;;;;;5088681;28;20489;-64
2022/01/13 10:00:20;;;;;;;1999.90;999.90;;;6.10;99.90;;;;;;5104444;28;20462;-64
2022/01/13 10:02:46;;;;;;;1999.90;999.90;;;6.00;99.90;;;;;;5095029;28;20497;-64
2022/01/13 10:05:12;;;;;;;1999.90;999.90;;;6.10;99.90;;;;;;5095064;28;20044;-64
2022/01/13 10:07:41;;;;;;;1999.90;999.90;;;6.10;99.90;;;;;;5094745;28;20039;-64
2022/01/13 10:10:14;;;;;;;1999.90;999.90;;;6.20;99.90;;;;;;5076559;28;20062;-64
2022/01/13 10:12:43;;;;;;;1999.90;999.90;;;6.10;99.90;;;;;;5094920;28;20051;-64
2022/01/13 10:18:00;;;;;;;1999.90;999.90;;;6.10;99.90;;;;;;5093290;28;20453;-64
2022/01/13 10:20:27;;;;;;;1999.90;999.90;;;6.10;99.90;;;;;;5093140;28;20044;-63
2022/01/13 10:22:53;;;;;;;1999.90;999.90;;;6.10;99.90;;;;;;5074606;28;20138;-64
2022/01/13 10:25:36;;;;;;;1999.90;999.90;;;6.20;99.90;;;;;;5084400;28;20093;-64
2022/01/13 10:28:15;;;;;;;1999.90;999.90;;;6.20;99.90;;;;;;5096771;28;20055;-64
2022/01/13 10:30:43;;;;;;;1999.90;999.90;;;6.20;99.90;;;;;;5099985;28;20497;-64
2022/01/13 10:33:19;;;;;;;1999.90;999.90;;;6.20;99.90;;;;;;5109592;28;20108;-64
2022/01/13 10:35:46;;;;;;;1999.90;999.90;;;6.20;99.90;;;;;;5104578;28;20067;-64
2022/01/13 10:38:16;;;;;;;1999.90;999.90;;;6.20;99.90;;;;;;5096473;28;20078;-64
2022/01/13 10:40:45;;;;;;;1999.90;999.90;;;6.20;99.90;;;;;;5104024;28;20040;-64
2022/01/13 10:43:11;;;;;;;1999.90;999.90;;;6.30;99.90;;;;;;5097896;28;20100;-64
2022/01/13 10:45:41;;;;;;;1999.90;999.90;;;6.30;99.90;;;;;;5100667;28;20056;-64
2022/01/13 10:48:12;;;;;;;1999.90;999.90;;;6.30;99.90;;;;;;5093411;28;20056;-64
2022/01/13 10:50:43;;;;;;;1999.90;999.90;;;6.40;99.90;;;;;;5073293;28;20499;-64
2022/01/13 10:53:12;;;;;;;1999.90;999.90;;;6.30;99.90;;;;;;5099757;28;20473;-64
2022/01/13 10:55:41;;;;;;;1999.90;999.90;;;6.30;99.90;;;;;;5104744;28;20457;-64
2022/01/13 10:58:07;;;;;;;1999.90;999.90;;;6.30;99.90;;;;;;5102493;28;20119;-65
2022/01/13 11:00:34;;;;;;;1999.90;999.90;;;6.30;99.90;;;;;;5103884;28;20122;-64
2022/01/13 11:03:11;;;;;;;1999.90;999.90;;;6.30;99.90;;;;;;5096828;28;20040;-64
2022/01/13 11:05:47;;;;;;;1999.90;999.90;;;6.30;99.90;;;;;;5093517;28;20406;-64
2022/01/13 11:08:23;;;;;;;1999.90;999.90;;;6.30;99.90;;;;;;5093379;28;20051;-65
2022/01/13 11:10:51;;;;;;;1999.90;999.90;;;6.30;99.90;;;;;;5087906;28;20045;-64
2022/01/13 11:13:19;;;;;;;1999.90;999.90;;;6.40;99.90;;;;;;5075732;28;20174;-64
2022/01/13 11:15:50;;;;;;;1999.90;999.90;;;6.40;99.90;;;;;;5073020;28;20088;-64
2022/01/13 11:18:19;;;;;;;1999.90;999.90;;;6.40;99.90;;;;;;5073002;28;20470;-64
2022/01/13 11:20:47;;;;;;;1999.90;999.90;;;6.40;99.90;;;;;;5090868;28;20048;-64
2022/01/13 11:23:16;;;;;;;1999.90;999.90;;;6.50;99.90;;;;;;5093242;28;20036;-64
2022/01/13 11:25:44;;;;;;;1999.90;999.90;;;6.40;99.90;;;;;;5096491;28;20533;-65
2022/01/13 11:28:10;;;;;;;1999.90;999.90;;;6.50;99.90;;;;;;5103053;28;20043;-64
2022/01/13 11:30:37;;;;;;;1999.90;999.90;;;6.40;99.90;;;;;;5100499;28;20083;-64
2022/01/13 11:33:02;;;;;;;1999.90;999.90;;;6.50;99.90;;;;;;5102440;28;20469;-64
2022/01/13 11:35:34;;;;;;;1999.90;999.90;;;6.40;99.90;;;;;;5102300;28;20051;-65
2022/01/13 11:38:03;;;;;;;1999.90;999.90;;;6.40;99.90;;;;;;5100649;28;20075;-64
2022/01/13 11:40:28;;;;;;;1999.90;999.90;;;6.40;99.90;;;;;;5104263;28;20048;-64
2022/01/13 11:42:56;;;;;;;1999.90;999.90;;;6.40;99.90;;;;;;5103797;28;20108;-64
2022/01/13 11:45:22;;;;;;;1999.90;999.90;;;6.40;99.90;;;;;;5091190;28;20059;-65
2022/01/13 11:48:09;;;;;;;1999.90;999.90;;;6.40;99.90;;;;;;5074997;28;20485;-64
2022/01/13 11:50:42;;;;;;;1999.90;999.90;;;6.40;99.90;;;;;;5093056;28;20394;-64
2022/01/13 11:53:21;;;;;;;1999.90;999.90;;;6.40;99.90;;;;;;5091590;28;20040;-64
2022/01/13 11:55:58;;;;;;;1999.90;999.90;;;6.50;99.90;;;;;;5092666;28;20473;-65
2022/01/13 11:58:31;;;;;;;1999.90;999.90;;;6.40;99.90;;;;;;5092836;28;20440;-64
2022/01/13 12:01:09;;;;;;;1999.90;999.90;;;6.50;99.90;;;;;;5092352;28;20067;-64
2022/01/13 12:03:36;;;;;;;1999.90;999.90;;;6.40;99.90;;;;;;5097809;28;20051;-65
2022/01/13 12:06:03;;;;;;;1999.90;999.90;;;6.40;99.90;;;;;;5091906;28;20047;-64
2022/01/13 12:08:36;;;;;;;1999.90;999.90;;;6.40;99.90;;;;;;5092512;28;20079;-64
2022/01/13 12:11:02;;;;;;;1999.90;999.90;;;6.40;99.90;;;;;;5092302;28;20054;-64
2022/01/13 12:13:28;;;;;;;1999.90;999.90;;;6.40;99.90;;;;;;5090424;28;20501;-64
2022/01/13 12:15:55;;;;;;;1999.90;999.90;;;6.40;99.90;;;;;;5100832;28;20050;-64
2022/01/13 12:19:05;;;;;;;1999.90;999.90;;;6.40;99.90;;;;;;5101269;28;20066;-64
2022/01/13 12:21:36;;;;;;;1999.90;999.90;;;6.40;99.90;;;;;;5094128;28;20417;-64
2022/01/13 12:24:05;;;;;;;1999.90;999.90;;;6.50;99.90;;;;;;5092478;28;20113;-64
2022/01/13 12:26:31;;;;;;;1999.90;999.90;;;6.50;99.90;;;;;;5092446;28;20040;-64
2022/01/13 12:29:18;;;;;;;1999.90;999.90;;;6.50;99.90;;;;;;5079319;28;20052;-64
2022/01/13 12:31:58;;;;;;;1999.90;999.90;;;6.50;99.90;;;;;;5090713;28;20128;-64
2022/01/13 12:34:28;;;;;;;1999.90;999.90;;;6.60;99.90;;;;;;5092374;28;20044;-65
2022/01/13 12:36:57;;;;;;;1999.90;999.90;;;6.60;99.90;;;;;;5092452;28;20067;-64
2022/01/13 12:39:24;;;;;;;1999.90;999.90;;;6.60;99.90;;;;;;5073901;28;20032;-65
2022/01/13 12:41:57;;;;;;;1999.90;999.90;;;6.70;99.90;;;;;;5092189;28;20101;-64
2022/01/13 12:45:28;;;;;;;1999.90;999.90;;;6.60;99.90;;;;;;5092408;28;20048;-64